createdAt,value
2022-11-01T00:00:21.408Z,9.30
2022-11-01T00:03:18.199Z,9.30
2022-11-01T00:06:15.037Z,9.30
2022-11-01T00:09:12.604Z,9.20
2022-11-01T00:12:09.396Z,9.20
2022-11-01T00:15:06.654Z,9.20
2022-11-01T00:18:03.822Z,9.30
2022-11-01T00:21:00.661Z,9.30
2022-11-01T00:23:57.482Z,9.20
2022-11-01T00:26:54.323Z,9.20
2022-11-01T00:29:51.127Z,9.30
2022-11-01T00:32:47.908Z,9.10
2022-11-01T00:35:46.789Z,9.20
2022-11-01T00:38:43.653Z,9.10
2022-11-01T00:41:40.643Z,9.20
2022-11-01T00:44:37.443Z,9.40
2022-11-01T00:47:34.267Z,9.30
2022-11-01T00:50:31.100Z,9.20
2022-11-01T00:53:27.982Z,9.20
2022-11-01T00:56:24.797Z,9.10
2022-11-01T00:59:21.634Z,8.90
2022-11-01T01:02:18.528Z,9.00
2022-11-01T01:05:15.710Z,9.00
2022-11-01T01:08:12.527Z,9.00
2022-11-01T01:11:09.350Z,9.00
2022-11-01T01:14:06.221Z,8.90
2022-11-01T01:17:03.625Z,8.90
2022-11-01T01:20:00.589Z,9.00
2022-11-01T01:22:57.512Z,8.90
2022-11-01T01:25:54.370Z,9.00
2022-11-01T01:28:54.903Z,9.00
2022-11-01T01:31:52.008Z,9.00
2022-11-01T01:34:49.349Z,8.90
2022-11-01T01:37:46.211Z,8.90
2022-11-01T01:40:43.136Z,8.90
2022-11-01T01:43:42.470Z,8.90
2022-11-01T01:46:39.272Z,9.00
2022-11-01T01:49:38.729Z,8.90
2022-11-01T01:53:00.403Z,9.00
2022-11-01T01:56:08.421Z,8.90
2022-11-01T01:59:10.063Z,9.00
2022-11-01T02:02:07.528Z,9.00
2022-11-01T02:05:39.439Z,9.00
2022-11-01T02:08:39.933Z,9.00
2022-11-01T02:11:36.787Z,9.10
2022-11-01T02:14:33.740Z,9.10
2022-11-01T02:18:10.302Z,9.10
2022-11-01T02:21:54.386Z,9.20
2022-11-01T02:25:02.796Z,9.10
2022-11-01T02:28:50.987Z,9.10
2022-11-01T02:32:08.634Z,9.10
2022-11-01T02:35:18.296Z,9.20
2022-11-01T02:38:36.183Z,9.20
2022-11-01T02:42:14.132Z,9.30
2022-11-01T02:45:30.355Z,9.20
2022-11-01T02:48:27.309Z,9.20
2022-11-01T02:51:25.853Z,9.10
2022-11-01T02:54:31.477Z,9.20
2022-11-01T02:57:41.229Z,9.20
2022-11-01T03:00:38.229Z,9.30
2022-11-01T03:03:36.112Z,9.30
2022-11-01T03:06:36.255Z,9.30
2022-11-01T03:09:35.360Z,9.40
2022-11-01T03:12:39.097Z,9.30
2022-11-01T03:15:49.150Z,9.40
2022-11-01T03:19:36.860Z,9.40
2022-11-01T03:22:49.918Z,9.50
2022-11-01T03:25:54.998Z,9.40
2022-11-01T03:28:59.566Z,9.30
2022-11-01T03:31:58.666Z,9.40
2022-11-01T03:34:57.249Z,9.40
2022-11-01T03:38:00.826Z,9.40
2022-11-01T03:41:03.390Z,9.50
2022-11-01T03:44:00.649Z,9.50
2022-11-01T03:46:57.772Z,9.50
2022-11-01T03:50:17.738Z,9.50
2022-11-01T03:53:15.372Z,9.40
2022-11-01T03:56:12.232Z,9.40
2022-11-01T03:59:10.921Z,9.50
2022-11-01T04:02:07.816Z,9.40
2022-11-01T04:05:05.578Z,9.50
2022-11-01T04:08:02.884Z,9.50
2022-11-01T04:11:00.493Z,9.50
2022-11-01T04:14:17.431Z,9.60
2022-11-01T04:17:32.834Z,9.50
2022-11-01T04:20:36.240Z,9.60
2022-11-01T04:23:34.245Z,9.60
2022-11-01T04:26:31.179Z,9.60
2022-11-01T04:29:28.041Z,9.60
2022-11-01T04:32:26.065Z,9.60
2022-11-01T04:35:23.964Z,9.60
2022-11-01T04:38:20.834Z,9.60
2022-11-01T04:41:22.700Z,9.60
2022-11-01T04:44:19.553Z,9.50
2022-11-01T04:47:16.443Z,9.50
2022-11-01T04:50:13.372Z,9.70
2022-11-01T04:53:10.677Z,9.70
2022-11-01T04:56:11.497Z,9.70
2022-11-01T04:59:08.259Z,9.80
2022-11-01T05:02:05.210Z,9.90
2022-11-01T05:05:02.161Z,10.20
2022-11-01T05:08:11.266Z,10.30
2022-11-01T05:11:08.155Z,10.40
2022-11-01T05:14:05.083Z,10.70
2022-11-01T05:17:02.101Z,10.70
2022-11-01T05:19:58.992Z,10.90
2022-11-01T05:23:01.084Z,11.10
2022-11-01T05:25:58.216Z,11.10
2022-11-01T05:28:55.154Z,11.30
2022-11-01T05:31:52.212Z,11.20
2022-11-01T05:34:49.883Z,11.60
2022-11-01T05:37:46.769Z,11.70
2022-11-01T05:40:43.663Z,11.60
2022-11-01T05:43:40.689Z,11.60
2022-11-01T05:46:37.585Z,11.60
2022-11-01T05:49:34.537Z,11.60
2022-11-01T05:52:31.397Z,11.60
2022-11-01T05:55:28.255Z,11.50
2022-11-01T05:58:28.088Z,11.50
2022-11-01T06:01:27.692Z,11.50
2022-11-01T06:04:24.579Z,11.50
2022-11-01T06:07:21.549Z,11.60
2022-11-01T06:10:18.542Z,11.60
2022-11-01T06:13:15.622Z,11.50
2022-11-01T06:16:12.428Z,11.50
2022-11-01T06:19:09.871Z,11.40
2022-11-01T06:22:06.728Z,11.40
2022-11-01T06:25:05.822Z,11.50
2022-11-01T06:28:03.634Z,11.50
2022-11-01T06:31:02.939Z,11.50
2022-11-01T06:34:00.035Z,11.60
2022-11-01T06:36:57.044Z,11.70
2022-11-01T06:39:53.978Z,11.80
2022-11-01T06:42:50.790Z,11.90
2022-11-01T06:45:47.668Z,11.90
2022-11-01T06:48:46.987Z,12.00
2022-11-01T06:51:43.804Z,12.00
2022-11-01T06:54:40.682Z,12.10
2022-11-01T06:57:37.742Z,12.30
2022-11-01T07:00:34.658Z,12.40
2022-11-01T07:03:31.580Z,12.50
2022-11-01T07:06:31.022Z,12.60
2022-11-01T07:09:27.958Z,12.70
2022-11-01T07:12:24.772Z,12.70
2022-11-01T07:15:21.612Z,12.80
2022-11-01T07:18:18.446Z,12.70
2022-11-01T07:21:15.333Z,12.70
2022-11-01T07:24:12.797Z,12.70
2022-11-01T07:27:09.965Z,12.70
2022-11-01T07:30:08.942Z,12.70
2022-11-01T07:33:06.422Z,12.60
2022-11-01T07:36:04.831Z,12.60
2022-11-01T07:39:01.686Z,12.50
2022-11-01T07:41:59.416Z,12.50
2022-11-01T07:44:56.356Z,12.60
2022-11-01T07:47:53.943Z,12.50
2022-11-01T07:50:54.995Z,12.50
2022-11-01T07:53:51.891Z,12.50
2022-11-01T07:56:48.747Z,12.60
2022-11-01T07:59:45.921Z,12.60
2022-11-01T08:02:42.849Z,12.60
2022-11-01T08:05:40.182Z,12.60
2022-11-01T08:08:37.177Z,12.60
2022-11-01T08:11:34.031Z,12.70
2022-11-01T08:14:30.962Z,12.70
2022-11-01T08:17:28.587Z,12.80
2022-11-01T08:20:27.445Z,12.80
2022-11-01T08:23:24.707Z,12.80
2022-11-01T08:26:21.919Z,12.80
2022-11-01T08:29:19.254Z,12.80
2022-11-01T08:32:21.476Z,12.80
2022-11-01T08:35:18.526Z,12.80
2022-11-01T08:38:15.417Z,12.80
2022-11-01T08:41:12.565Z,12.80
2022-11-01T08:44:09.533Z,12.80
2022-11-01T08:47:06.701Z,12.80
2022-11-01T08:50:07.132Z,12.70
2022-11-01T08:53:12.514Z,12.70
2022-11-01T08:56:09.732Z,12.70
2022-11-01T08:59:06.684Z,12.70
2022-11-01T09:02:03.817Z,12.60
2022-11-01T09:05:05.005Z,12.60
2022-11-01T09:08:02.883Z,12.60
2022-11-01T09:11:00.417Z,12.60
2022-11-01T09:14:01.258Z,12.60
2022-11-01T09:16:58.175Z,12.60
2022-11-01T09:19:55.127Z,12.60
2022-11-01T09:22:54.874Z,12.70
2022-11-01T09:25:52.077Z,12.70
2022-11-01T09:28:49.077Z,12.70
2022-11-01T09:31:45.989Z,12.70
2022-11-01T09:34:42.914Z,12.70
2022-11-01T09:37:39.908Z,12.70
2022-11-01T09:40:44.183Z,12.80
2022-11-01T09:43:44.170Z,12.80
2022-11-01T09:47:12.287Z,12.80
2022-11-01T09:50:22.595Z,12.80
2022-11-01T09:53:25.817Z,12.80
2022-11-01T09:56:33.226Z,12.90
2022-11-01T09:59:43.357Z,12.90
2022-11-01T10:03:23.673Z,12.90
2022-11-01T10:06:27.975Z,13.00
2022-11-01T10:09:55.516Z,13.10
2022-11-01T10:13:25.677Z,13.10
2022-11-01T10:16:41.959Z,13.20
2022-11-01T10:19:40.727Z,13.30
2022-11-01T10:22:40.050Z,13.40
2022-11-01T10:25:39.206Z,13.50
2022-11-01T10:28:58.808Z,13.60
2022-11-01T10:31:58.243Z,13.60
2022-11-01T10:35:03.167Z,13.80
2022-11-01T10:38:28.039Z,13.90
2022-11-01T10:41:43.059Z,14.00
2022-11-01T10:44:46.669Z,14.10
2022-11-01T10:47:46.262Z,14.00
2022-11-01T10:50:44.073Z,14.20
2022-11-01T10:53:48.194Z,14.10
2022-11-01T10:56:49.668Z,14.10
2022-11-01T10:59:48.050Z,14.10
2022-11-01T11:02:58.702Z,14.20
2022-11-01T11:05:59.434Z,14.20
2022-11-01T11:08:57.501Z,14.20
2022-11-01T11:12:02.024Z,14.20
2022-11-01T11:15:20.983Z,14.20
2022-11-01T11:18:28.301Z,14.30
2022-11-01T11:21:28.170Z,14.30
2022-11-01T11:24:33.193Z,14.30
2022-11-01T11:27:33.735Z,14.30
2022-11-01T11:30:34.244Z,14.30
2022-11-01T11:33:31.248Z,14.30
2022-11-01T11:36:35.115Z,14.30
2022-11-01T11:39:37.940Z,14.30
2022-11-01T11:42:35.814Z,14.30
2022-11-01T11:45:32.769Z,14.30
2022-11-01T11:48:29.740Z,14.40
2022-11-01T11:51:30.256Z,14.50
2022-11-01T11:54:32.162Z,14.50
2022-11-01T11:57:30.225Z,14.50
2022-11-01T12:00:29.669Z,14.50
2022-11-01T12:03:27.007Z,14.60
2022-11-01T12:06:29.650Z,14.80
2022-11-01T12:09:47.763Z,15.00
2022-11-01T12:12:52.777Z,15.10
2022-11-01T12:16:05.485Z,15.00
2022-11-01T12:19:03.774Z,14.90
2022-11-01T12:22:03.675Z,14.80
2022-11-01T12:25:08.255Z,14.90
2022-11-01T12:28:20.267Z,14.90
2022-11-01T12:31:19.754Z,14.90
2022-11-01T12:34:33.139Z,14.90
2022-11-01T12:37:58.291Z,15.00
2022-11-01T12:40:59.369Z,15.00
2022-11-01T12:44:29.447Z,14.90
2022-11-01T12:47:44.020Z,15.00
2022-11-01T12:51:11.031Z,14.90
2022-11-01T12:54:26.918Z,15.00
2022-11-01T12:57:23.812Z,15.30
2022-11-01T13:00:21.477Z,15.50
2022-11-01T13:03:48.719Z,15.50
2022-11-01T13:07:29.527Z,15.50
2022-11-01T13:10:38.272Z,15.70
2022-11-01T13:14:16.546Z,15.80
2022-11-01T13:17:23.444Z,15.80
2022-11-01T13:20:51.094Z,15.70
2022-11-01T13:24:02.737Z,15.60
2022-11-01T13:27:09.851Z,15.50
2022-11-01T13:30:18.645Z,15.40
2022-11-01T13:34:03.252Z,15.40
2022-11-01T13:37:20.761Z,15.50
2022-11-01T13:40:46.276Z,15.40
2022-11-01T13:43:54.402Z,15.40
2022-11-01T13:47:15.781Z,15.30
2022-11-01T13:50:15.189Z,15.20
2022-11-01T13:53:33.013Z,15.30
2022-11-01T13:56:43.328Z,15.40
2022-11-01T13:59:44.415Z,15.40
2022-11-01T14:02:58.117Z,15.40
2022-11-01T14:06:07.681Z,15.40
2022-11-01T14:09:29.465Z,15.40
2022-11-01T14:12:35.069Z,15.40
2022-11-01T14:15:34.821Z,15.40
2022-11-01T14:19:03.936Z,15.40
2022-11-01T14:22:00.934Z,15.30
2022-11-01T14:25:31.707Z,15.40
2022-11-01T14:28:31.202Z,15.40
2022-11-01T14:31:33.761Z,15.30
2022-11-01T14:34:35.743Z,15.10
2022-11-01T14:37:42.626Z,15.00
2022-11-01T14:40:59.948Z,15.10
2022-11-01T14:44:27.365Z,15.10
2022-11-01T14:47:41.068Z,15.10
2022-11-01T14:51:22.789Z,15.20
2022-11-01T14:54:24.708Z,15.10
2022-11-01T14:57:28.303Z,15.20
2022-11-01T15:00:31.945Z,15.00
2022-11-01T15:03:28.796Z,15.00
2022-11-01T15:06:30.132Z,15.00
2022-11-01T15:09:30.729Z,15.00
2022-11-01T15:12:34.765Z,14.80
2022-11-01T15:15:38.378Z,14.80
2022-11-01T15:18:42.591Z,14.70
2022-11-01T15:21:47.020Z,14.70
2022-11-01T15:24:47.840Z,14.50
2022-11-01T15:27:46.467Z,14.30
2022-11-01T15:30:43.394Z,14.30
2022-11-01T15:34:19.736Z,14.20
2022-11-01T15:37:23.341Z,14.10
2022-11-01T15:40:34.915Z,14.10
2022-11-01T15:43:31.750Z,13.90
2022-11-01T15:46:33.214Z,13.70
2022-11-01T15:49:42.176Z,13.70
2022-11-01T15:52:39.607Z,13.50
2022-11-01T15:55:44.147Z,13.40
2022-11-01T16:02:07.058Z,13.30
2022-11-01T16:05:05.394Z,13.10
2022-11-01T16:08:08.158Z,13.00
2022-11-01T16:11:08.731Z,12.90
2022-11-01T16:14:19.156Z,13.00
2022-11-01T16:17:38.999Z,13.00
2022-11-01T16:20:41.012Z,13.00
2022-11-01T16:23:37.969Z,13.00
2022-11-01T16:27:06.185Z,13.00
2022-11-01T16:30:09.436Z,12.90
2022-11-01T16:33:25.198Z,12.70
2022-11-01T16:36:32.808Z,12.60
2022-11-01T16:39:31.390Z,12.40
2022-11-01T16:42:29.646Z,12.30
2022-11-01T16:45:26.593Z,12.30
2022-11-01T16:48:55.200Z,12.30
2022-11-01T16:51:56.396Z,12.10
2022-11-01T16:54:54.726Z,12.10
2022-11-01T16:57:51.678Z,12.10
2022-11-01T17:00:55.808Z,11.90
2022-11-01T17:03:53.381Z,11.70
2022-11-01T17:06:50.784Z,11.60
2022-11-01T17:09:47.823Z,11.60
2022-11-01T17:12:44.871Z,11.40
2022-11-01T17:15:46.132Z,11.20
2022-11-01T17:18:43.236Z,11.30
2022-11-01T17:21:40.151Z,11.20
2022-11-01T17:24:36.992Z,11.10
2022-11-01T17:27:34.237Z,11.00
2022-11-01T17:30:32.409Z,11.00
2022-11-01T17:33:29.340Z,10.90
2022-11-01T17:36:27.000Z,10.90
2022-11-01T17:39:27.517Z,10.90
2022-11-01T17:42:24.360Z,10.70
2022-11-01T17:45:22.718Z,10.50
2022-11-01T17:48:19.680Z,10.40
2022-11-01T17:51:17.783Z,10.20
2022-11-01T17:54:14.683Z,10.00
2022-11-01T17:57:12.777Z,9.80
2022-11-01T18:00:11.015Z,9.80
2022-11-01T18:03:09.996Z,9.70
2022-11-01T18:06:07.147Z,9.50
2022-11-01T18:09:25.183Z,9.60
2022-11-01T18:12:37.492Z,9.50
2022-11-01T18:15:38.754Z,9.40
2022-11-01T18:18:53.679Z,9.40
2022-11-01T18:22:35.853Z,9.40
2022-11-01T18:25:47.166Z,9.20
2022-11-01T18:28:44.520Z,9.10
2022-11-01T18:31:44.406Z,9.40
2022-11-01T18:34:56.062Z,9.20
2022-11-01T18:38:26.605Z,8.80
2022-11-01T18:41:23.596Z,8.70
2022-11-01T18:44:20.440Z,8.70
2022-11-01T18:47:24.597Z,8.60
2022-11-01T18:50:26.289Z,8.50
2022-11-01T18:53:26.028Z,8.60
2022-11-01T18:56:26.067Z,8.60
2022-11-01T18:59:37.202Z,8.60
2022-11-01T19:02:35.840Z,8.50
2022-11-01T19:05:34.555Z,8.50
2022-11-01T19:08:31.434Z,8.50
2022-11-01T19:11:31.346Z,8.40
2022-11-01T19:14:30.749Z,8.30
2022-11-01T19:17:34.252Z,8.30
2022-11-01T19:20:56.491Z,8.40
2022-11-01T19:23:55.388Z,8.40
2022-11-01T19:26:52.222Z,8.30
2022-11-01T19:29:55.370Z,8.20
2022-11-01T19:33:03.450Z,8.20
2022-11-01T19:36:05.840Z,8.10
2022-11-01T19:39:30.195Z,8.10
2022-11-01T19:42:32.103Z,8.20
2022-11-01T19:45:33.676Z,8.10
2022-11-01T19:48:31.910Z,8.00
2022-11-01T19:51:29.729Z,8.20
2022-11-01T19:54:38.687Z,8.20
2022-11-01T19:57:39.601Z,8.00
2022-11-01T20:00:39.266Z,8.10
2022-11-01T20:03:58.092Z,8.20
2022-11-01T20:06:59.624Z,8.20
2022-11-01T20:09:58.762Z,8.30
2022-11-01T20:12:55.809Z,8.20
2022-11-01T20:15:52.643Z,8.30
2022-11-01T20:18:49.495Z,8.50
2022-11-01T20:21:46.758Z,8.50
2022-11-01T20:24:43.981Z,8.60
2022-11-01T20:27:40.818Z,8.70
2022-11-01T20:30:37.635Z,8.70
2022-11-01T20:33:34.680Z,8.70
2022-11-01T20:36:31.505Z,8.60
2022-11-01T20:39:28.367Z,8.70
2022-11-01T20:42:25.407Z,8.70
2022-11-01T20:45:22.298Z,8.70
2022-11-01T20:48:19.419Z,8.70
2022-11-01T20:51:16.279Z,8.60
2022-11-01T20:54:17.578Z,8.60
2022-11-01T20:57:27.099Z,8.70
2022-11-01T21:00:24.710Z,8.60
2022-11-01T21:03:24.500Z,8.60
2022-11-01T21:06:24.330Z,8.40
2022-11-01T21:09:38.604Z,8.40
2022-11-01T21:12:47.636Z,8.20
2022-11-01T21:15:45.518Z,8.00
2022-11-01T21:18:45.704Z,7.90
2022-11-01T21:21:47.032Z,7.70
2022-11-01T21:24:47.800Z,7.90
2022-11-01T21:27:48.461Z,7.70
2022-11-01T21:30:45.306Z,7.70
2022-11-01T21:33:53.328Z,7.50
2022-11-01T21:36:50.911Z,7.40
2022-11-01T21:39:53.745Z,7.20
2022-11-01T21:42:50.602Z,7.20
2022-11-01T21:45:48.302Z,7.10
2022-11-01T21:48:45.838Z,7.10
2022-11-01T21:51:42.664Z,7.10
2022-11-01T21:54:40.885Z,7.00
2022-11-01T21:57:37.723Z,7.00
2022-11-01T22:00:34.527Z,7.00
2022-11-01T22:03:31.382Z,7.00
2022-11-01T22:06:28.192Z,7.00
2022-11-01T22:09:25.379Z,7.10
2022-11-01T22:12:22.192Z,7.10
2022-11-01T22:15:19.030Z,7.00
2022-11-01T22:18:17.210Z,7.00
2022-11-01T22:21:15.987Z,6.90
2022-11-01T22:24:12.821Z,6.90
2022-11-01T22:27:09.663Z,6.70
2022-11-01T22:30:07.452Z,6.60
2022-11-01T22:33:05.964Z,6.40
2022-11-01T22:36:04.162Z,6.30
2022-11-01T22:39:06.666Z,6.30
2022-11-01T22:42:05.976Z,6.30
2022-11-01T22:45:03.925Z,6.20
2022-11-01T22:48:00.833Z,6.30
2022-11-01T22:51:02.552Z,6.10
2022-11-01T22:54:00.227Z,6.10
2022-11-01T22:57:10.028Z,6.10
2022-11-01T23:00:45.612Z,6.10
2022-11-01T23:03:42.517Z,6.20
2022-11-01T23:06:42.695Z,6.00
2022-11-01T23:09:40.105Z,6.00
2022-11-01T23:12:55.967Z,5.80
2022-11-01T23:15:54.077Z,5.80
2022-11-01T23:18:53.751Z,6.00
2022-11-01T23:21:50.722Z,6.00
2022-11-01T23:24:52.517Z,6.00
2022-11-01T23:27:49.389Z,5.80
2022-11-01T23:30:48.633Z,5.90
2022-11-01T23:33:48.592Z,5.80
2022-11-01T23:36:45.452Z,5.80
2022-11-01T23:39:42.626Z,5.70
2022-11-01T23:42:39.689Z,5.70
2022-11-01T23:45:36.658Z,5.60
2022-11-01T23:48:33.821Z,5.50
2022-11-01T23:51:31.314Z,5.50
2022-11-01T23:54:39.786Z,5.60
2022-11-01T23:57:36.632Z,5.60
